sensor_id;sensor_type;location;lat;lon;timestamp;P1;durP1;ratioP1;P2;durP2;ratioP2
46266;SDS011;31998;48.798;15.066;2022-10-15T00:02:06;18.23;;;12.33;;
46266;SDS011;31998;48.798;15.066;2022-10-15T00:04:32;26.53;;;14.07;;
46266;SDS011;31998;48.798;15.066;2022-10-15T00:06:58;20.30;;;15.00;;
46266;SDS011;31998;48.798;15.066;2022-10-15T00:09:24;26.97;;;15.73;;
46266;SDS011;31998;48.798;15.066;2022-10-15T00:11:49;24.73;;;14.50;;
46266;SDS011;31998;48.798;15.066;2022-10-15T00:14:15;22.70;;;15.57;;
46266;SDS011;31998;48.798;15.066;2022-10-15T00:16:41;22.30;;;14.63;;
46266;SDS011;31998;48.798;15.066;2022-10-15T00:19:06;27.37;;;16.50;;
46266;SDS011;31998;48.798;15.066;2022-10-15T00:21:33;18.27;;;14.47;;
46266;SDS011;31998;48.798;15.066;2022-10-15T00:23:59;18.00;;;14.03;;
46266;SDS011;31998;48.798;15.066;2022-10-15T00:26:25;17.57;;;12.47;;
46266;SDS011;31998;48.798;15.066;2022-10-15T00:28:52;23.00;;;11.30;;
46266;SDS011;31998;48.798;15.066;2022-10-15T00:31:19;362.27;;;16.37;;
46266;SDS011;31998;48.798;15.066;2022-10-15T00:33:48;20.70;;;15.40;;
46266;SDS011;31998;48.798;15.066;2022-10-15T00:36:16;20.57;;;14.70;;
46266;SDS011;31998;48.798;15.066;2022-10-15T00:38:42;17.83;;;11.97;;
46266;SDS011;31998;48.798;15.066;2022-10-15T00:41:12;22.00;;;13.70;;
46266;SDS011;31998;48.798;15.066;2022-10-15T00:46:16;23.23;;;15.00;;
46266;SDS011;31998;48.798;15.066;2022-10-15T00:48:47;19.80;;;13.80;;
46266;SDS011;31998;48.798;15.066;2022-10-15T00:51:15;24.03;;;13.23;;
46266;SDS011;31998;48.798;15.066;2022-10-15T00:53:43;20.67;;;14.23;;
46266;SDS011;31998;48.798;15.066;2022-10-15T00:56:09;28.63;;;17.40;;
46266;SDS011;31998;48.798;15.066;2022-10-15T00:58:36;28.03;;;17.80;;
46266;SDS011;31998;48.798;15.066;2022-10-15T01:01:02;38.00;;;20.50;;
46266;SDS011;31998;48.798;15.066;2022-10-15T01:03:27;37.87;;;22.17;;
46266;SDS011;31998;48.798;15.066;2022-10-15T01:05:53;38.30;;;23.23;;
46266;SDS011;31998;48.798;15.066;2022-10-15T01:08:19;40.80;;;21.83;;
46266;SDS011;31998;48.798;15.066;2022-10-15T01:13:33;37.30;;;22.17;;
46266;SDS011;31998;48.798;15.066;2022-10-15T01:16:11;39.60;;;24.27;;
46266;SDS011;31998;48.798;15.066;2022-10-15T01:18:56;41.37;;;25.43;;
46266;SDS011;31998;48.798;15.066;2022-10-15T01:24:20;37.97;;;23.80;;
46266;SDS011;31998;48.798;15.066;2022-10-15T01:32:29;36.33;;;22.40;;
46266;SDS011;31998;48.798;15.066;2022-10-15T01:38:08;33.13;;;22.20;;
46266;SDS011;31998;48.798;15.066;2022-10-15T01:46:16;29.53;;;19.93;;
46266;SDS011;31998;48.798;15.066;2022-10-15T01:48:45;39.80;;;21.10;;
46266;SDS011;31998;48.798;15.066;2022-10-15T01:51:13;33.40;;;20.50;;
46266;SDS011;31998;48.798;15.066;2022-10-15T01:53:41;30.00;;;19.20;;
46266;SDS011;31998;48.798;15.066;2022-10-15T01:56:08;29.17;;;20.13;;
46266;SDS011;31998;48.798;15.066;2022-10-15T01:58:42;38.83;;;21.73;;
46266;SDS011;31998;48.798;15.066;2022-10-15T02:01:09;36.83;;;22.60;;
46266;SDS011;31998;48.798;15.066;2022-10-15T02:03:47;32.67;;;19.70;;
46266;SDS011;31998;48.798;15.066;2022-10-15T02:06:19;31.57;;;19.87;;
46266;SDS011;31998;48.798;15.066;2022-10-15T02:08:54;31.73;;;19.93;;
46266;SDS011;31998;48.798;15.066;2022-10-15T02:11:21;27.80;;;19.80;;
46266;SDS011;31998;48.798;15.066;2022-10-15T02:24:16;32.10;;;21.43;;
46266;SDS011;31998;48.798;15.066;2022-10-15T02:26:46;40.27;;;22.37;;
46266;SDS011;31998;48.798;15.066;2022-10-15T02:29:15;40.43;;;22.90;;
46266;SDS011;31998;48.798;15.066;2022-10-15T02:31:45;37.47;;;22.47;;
46266;SDS011;31998;48.798;15.066;2022-10-15T02:34:15;41.03;;;24.10;;
46266;SDS011;31998;48.798;15.066;2022-10-15T02:36:43;33.50;;;22.70;;
46266;SDS011;31998;48.798;15.066;2022-10-15T02:39:11;35.10;;;21.87;;
46266;SDS011;31998;48.798;15.066;2022-10-15T02:41:41;36.50;;;22.13;;
46266;SDS011;31998;48.798;15.066;2022-10-15T02:44:07;33.03;;;20.60;;
46266;SDS011;31998;48.798;15.066;2022-10-15T02:46:33;32.27;;;20.97;;
46266;SDS011;31998;48.798;15.066;2022-10-15T02:48:58;34.57;;;20.80;;
46266;SDS011;31998;48.798;15.066;2022-10-15T02:51:23;36.60;;;20.00;;
46266;SDS011;31998;48.798;15.066;2022-10-15T02:53:49;30.43;;;19.33;;
46266;SDS011;31998;48.798;15.066;2022-10-15T02:56:14;33.60;;;20.37;;
46266;SDS011;31998;48.798;15.066;2022-10-15T02:58:40;35.73;;;21.40;;
46266;SDS011;31998;48.798;15.066;2022-10-15T03:01:05;35.50;;;20.47;;
46266;SDS011;31998;48.798;15.066;2022-10-15T03:03:30;36.73;;;19.83;;
46266;SDS011;31998;48.798;15.066;2022-10-15T03:05:56;35.33;;;18.90;;
46266;SDS011;31998;48.798;15.066;2022-10-15T03:08:21;33.10;;;19.50;;
46266;SDS011;31998;48.798;15.066;2022-10-15T03:10:47;40.50;;;20.53;;
46266;SDS011;31998;48.798;15.066;2022-10-15T03:13:12;25.03;;;17.83;;
46266;SDS011;31998;48.798;15.066;2022-10-15T03:15:38;26.13;;;15.87;;
46266;SDS011;31998;48.798;15.066;2022-10-15T03:18:03;36.93;;;18.60;;
46266;SDS011;31998;48.798;15.066;2022-10-15T03:20:29;23.70;;;16.90;;
46266;SDS011;31998;48.798;15.066;2022-10-15T03:22:55;36.13;;;19.37;;
46266;SDS011;31998;48.798;15.066;2022-10-15T03:25:20;28.33;;;17.97;;
46266;SDS011;31998;48.798;15.066;2022-10-15T03:27:46;31.80;;;20.13;;
46266;SDS011;31998;48.798;15.066;2022-10-15T03:30:11;27.90;;;18.30;;
46266;SDS011;31998;48.798;15.066;2022-10-15T03:32:37;29.03;;;19.50;;
46266;SDS011;31998;48.798;15.066;2022-10-15T03:35:02;29.37;;;18.47;;
46266;SDS011;31998;48.798;15.066;2022-10-15T03:37:28;25.70;;;19.80;;
46266;SDS011;31998;48.798;15.066;2022-10-15T03:39:53;34.53;;;19.77;;
46266;SDS011;31998;48.798;15.066;2022-10-15T03:42:19;27.87;;;18.70;;
46266;SDS011;31998;48.798;15.066;2022-10-15T03:44:44;26.37;;;18.43;;
46266;SDS011;31998;48.798;15.066;2022-10-15T03:47:09;28.67;;;18.77;;
46266;SDS011;31998;48.798;15.066;2022-10-15T03:49:35;24.60;;;16.13;;
46266;SDS011;31998;48.798;15.066;2022-10-15T03:52:00;27.00;;;19.03;;
46266;SDS011;31998;48.798;15.066;2022-10-15T03:54:26;32.83;;;19.20;;
46266;SDS011;31998;48.798;15.066;2022-10-15T03:56:51;33.30;;;20.60;;
46266;SDS011;31998;48.798;15.066;2022-10-15T03:59:16;28.13;;;19.50;;
46266;SDS011;31998;48.798;15.066;2022-10-15T04:01:42;33.67;;;19.67;;
46266;SDS011;31998;48.798;15.066;2022-10-15T04:04:09;30.67;;;19.40;;
46266;SDS011;31998;48.798;15.066;2022-10-15T04:06:36;30.03;;;19.10;;
46266;SDS011;31998;48.798;15.066;2022-10-15T04:09:02;25.30;;;17.30;;
46266;SDS011;31998;48.798;15.066;2022-10-15T04:11:27;24.47;;;17.60;;
46266;SDS011;31998;48.798;15.066;2022-10-15T04:13:53;32.07;;;19.00;;
46266;SDS011;31998;48.798;15.066;2022-10-15T04:16:18;25.87;;;18.20;;
46266;SDS011;31998;48.798;15.066;2022-10-15T04:18:43;27.53;;;18.10;;
46266;SDS011;31998;48.798;15.066;2022-10-15T04:21:09;28.97;;;19.27;;
46266;SDS011;31998;48.798;15.066;2022-10-15T04:23:34;23.50;;;16.93;;
46266;SDS011;31998;48.798;15.066;2022-10-15T04:26:00;28.43;;;18.10;;
46266;SDS011;31998;48.798;15.066;2022-10-15T04:28:26;28.27;;;17.43;;
46266;SDS011;31998;48.798;15.066;2022-10-15T04:30:56;29.87;;;18.57;;
46266;SDS011;31998;48.798;15.066;2022-10-15T04:33:22;31.37;;;20.20;;
46266;SDS011;31998;48.798;15.066;2022-10-15T04:35:56;36.70;;;21.47;;
46266;SDS011;31998;48.798;15.066;2022-10-15T04:38:23;34.20;;;19.23;;
46266;SDS011;31998;48.798;15.066;2022-10-15T04:40:48;30.23;;;19.70;;
46266;SDS011;31998;48.798;15.066;2022-10-15T04:43:14;29.50;;;19.13;;
46266;SDS011;31998;48.798;15.066;2022-10-15T04:45:39;28.03;;;19.17;;
46266;SDS011;31998;48.798;15.066;2022-10-15T04:48:05;34.27;;;20.30;;
46266;SDS011;31998;48.798;15.066;2022-10-15T04:50:30;35.10;;;18.47;;
46266;SDS011;31998;48.798;15.066;2022-10-15T04:52:55;29.97;;;18.40;;
46266;SDS011;31998;48.798;15.066;2022-10-15T04:55:23;35.87;;;20.20;;
46266;SDS011;31998;48.798;15.066;2022-10-15T04:57:48;31.53;;;18.87;;
46266;SDS011;31998;48.798;15.066;2022-10-15T05:00:13;32.10;;;18.13;;
46266;SDS011;31998;48.798;15.066;2022-10-15T05:02:42;30.73;;;19.90;;
46266;SDS011;31998;48.798;15.066;2022-10-15T05:05:07;30.70;;;19.07;;
46266;SDS011;31998;48.798;15.066;2022-10-15T05:07:33;31.43;;;19.33;;
46266;SDS011;31998;48.798;15.066;2022-10-15T05:09:58;32.80;;;19.60;;
46266;SDS011;31998;48.798;15.066;2022-10-15T05:12:23;24.97;;;16.73;;
46266;SDS011;31998;48.798;15.066;2022-10-15T05:14:49;21.83;;;16.90;;
46266;SDS011;31998;48.798;15.066;2022-10-15T05:17:14;29.60;;;20.53;;
46266;SDS011;31998;48.798;15.066;2022-10-15T05:19:39;24.33;;;17.37;;
46266;SDS011;31998;48.798;15.066;2022-10-15T05:22:05;27.67;;;18.23;;
46266;SDS011;31998;48.798;15.066;2022-10-15T05:24:30;23.20;;;16.60;;
46266;SDS011;31998;48.798;15.066;2022-10-15T05:26:55;25.43;;;17.50;;
46266;SDS011;31998;48.798;15.066;2022-10-15T05:29:21;21.10;;;16.83;;
46266;SDS011;31998;48.798;15.066;2022-10-15T05:31:48;33.20;;;15.73;;
46266;SDS011;31998;48.798;15.066;2022-10-15T05:34:14;24.63;;;18.13;;
46266;SDS011;31998;48.798;15.066;2022-10-15T05:36:39;18.40;;;14.60;;
46266;SDS011;31998;48.798;15.066;2022-10-15T05:39:05;24.07;;;16.63;;
46266;SDS011;31998;48.798;15.066;2022-10-15T05:41:34;21.00;;;16.70;;
46266;SDS011;31998;48.798;15.066;2022-10-15T05:44:00;25.53;;;18.17;;
46266;SDS011;31998;48.798;15.066;2022-10-15T05:46:25;24.87;;;18.77;;
46266;SDS011;31998;48.798;15.066;2022-10-15T05:48:51;26.13;;;17.20;;
46266;SDS011;31998;48.798;15.066;2022-10-15T05:51:18;25.33;;;16.90;;
46266;SDS011;31998;48.798;15.066;2022-10-15T05:53:43;28.10;;;16.30;;
46266;SDS011;31998;48.798;15.066;2022-10-15T05:56:10;19.93;;;15.50;;
46266;SDS011;31998;48.798;15.066;2022-10-15T05:58:36;24.27;;;16.07;;
46266;SDS011;31998;48.798;15.066;2022-10-15T06:01:03;27.93;;;17.03;;
46266;SDS011;31998;48.798;15.066;2022-10-15T06:03:32;26.03;;;17.13;;
46266;SDS011;31998;48.798;15.066;2022-10-15T06:05:58;26.20;;;16.17;;
46266;SDS011;31998;48.798;15.066;2022-10-15T06:08:24;24.30;;;15.60;;
46266;SDS011;31998;48.798;15.066;2022-10-15T06:10:49;24.13;;;17.30;;
46266;SDS011;31998;48.798;15.066;2022-10-15T06:13:15;22.97;;;16.87;;
46266;SDS011;31998;48.798;15.066;2022-10-15T06:15:42;27.50;;;19.17;;
46266;SDS011;31998;48.798;15.066;2022-10-15T06:18:10;27.53;;;18.20;;
46266;SDS011;31998;48.798;15.066;2022-10-15T06:20:39;24.07;;;17.33;;
46266;SDS011;31998;48.798;15.066;2022-10-15T06:23:06;27.20;;;17.17;;
46266;SDS011;31998;48.798;15.066;2022-10-15T06:25:32;21.10;;;14.70;;
46266;SDS011;31998;48.798;15.066;2022-10-15T06:28:04;18.27;;;14.77;;
46266;SDS011;31998;48.798;15.066;2022-10-15T06:30:31;22.90;;;15.90;;
46266;SDS011;31998;48.798;15.066;2022-10-15T06:32:56;21.07;;;15.40;;
46266;SDS011;31998;48.798;15.066;2022-10-15T06:35:22;21.20;;;15.53;;
46266;SDS011;31998;48.798;15.066;2022-10-15T06:37:49;19.87;;;14.47;;
46266;SDS011;31998;48.798;15.066;2022-10-15T06:40:15;19.70;;;13.30;;
46266;SDS011;31998;48.798;15.066;2022-10-15T06:42:40;22.50;;;14.70;;
46266;SDS011;31998;48.798;15.066;2022-10-15T06:45:06;16.73;;;13.13;;
46266;SDS011;31998;48.798;15.066;2022-10-15T06:47:34;19.90;;;14.37;;
46266;SDS011;31998;48.798;15.066;2022-10-15T06:50:01;18.97;;;14.30;;
46266;SDS011;31998;48.798;15.066;2022-10-15T06:52:28;23.97;;;14.77;;
46266;SDS011;31998;48.798;15.066;2022-10-15T06:54:54;17.73;;;13.90;;
46266;SDS011;31998;48.798;15.066;2022-10-15T06:57:19;21.90;;;15.10;;
46266;SDS011;31998;48.798;15.066;2022-10-15T06:59:44;19.17;;;14.47;;
46266;SDS011;31998;48.798;15.066;2022-10-15T07:02:11;21.80;;;15.83;;
46266;SDS011;31998;48.798;15.066;2022-10-15T07:04:41;17.90;;;14.23;;
46266;SDS011;31998;48.798;15.066;2022-10-15T07:07:07;20.50;;;15.07;;
46266;SDS011;31998;48.798;15.066;2022-10-15T07:09:32;16.73;;;13.50;;
46266;SDS011;31998;48.798;15.066;2022-10-15T07:11:59;18.60;;;13.60;;
46266;SDS011;31998;48.798;15.066;2022-10-15T07:14:24;15.80;;;13.70;;
46266;SDS011;31998;48.798;15.066;2022-10-15T07:16:50;24.27;;;14.17;;
46266;SDS011;31998;48.798;15.066;2022-10-15T07:19:15;19.10;;;13.77;;
46266;SDS011;31998;48.798;15.066;2022-10-15T07:21:41;18.43;;;13.83;;
46266;SDS011;31998;48.798;15.066;2022-10-15T07:24:06;19.67;;;15.23;;
46266;SDS011;31998;48.798;15.066;2022-10-15T07:26:31;18.23;;;14.63;;
46266;SDS011;31998;48.798;15.066;2022-10-15T07:28:57;19.90;;;15.07;;
46266;SDS011;31998;48.798;15.066;2022-10-15T07:31:23;18.43;;;13.47;;
46266;SDS011;31998;48.798;15.066;2022-10-15T07:33:48;19.77;;;14.23;;
46266;SDS011;31998;48.798;15.066;2022-10-15T07:36:14;24.47;;;15.90;;
46266;SDS011;31998;48.798;15.066;2022-10-15T07:38:39;23.53;;;14.30;;
46266;SDS011;31998;48.798;15.066;2022-10-15T07:41:06;24.93;;;17.57;;
46266;SDS011;31998;48.798;15.066;2022-10-15T07:43:33;19.97;;;15.50;;
46266;SDS011;31998;48.798;15.066;2022-10-15T07:45:59;30.27;;;16.20;;
46266;SDS011;31998;48.798;15.066;2022-10-15T07:48:25;20.50;;;16.00;;
46266;SDS011;31998;48.798;15.066;2022-10-15T07:51:01;19.23;;;15.80;;
46266;SDS011;31998;48.798;15.066;2022-10-15T07:53:29;24.77;;;16.47;;
46266;SDS011;31998;48.798;15.066;2022-10-15T07:55:59;21.07;;;15.87;;
46266;SDS011;31998;48.798;15.066;2022-10-15T07:58:25;25.13;;;17.60;;
46266;SDS011;31998;48.798;15.066;2022-10-15T08:00:51;18.40;;;16.40;;
46266;SDS011;31998;48.798;15.066;2022-10-15T08:03:17;20.23;;;17.33;;
46266;SDS011;31998;48.798;15.066;2022-10-15T08:05:43;20.17;;;15.77;;
46266;SDS011;31998;48.798;15.066;2022-10-15T08:08:08;20.40;;;17.10;;
46266;SDS011;31998;48.798;15.066;2022-10-15T08:10:34;23.10;;;17.30;;
46266;SDS011;31998;48.798;15.066;2022-10-15T08:13:00;20.67;;;15.93;;
46266;SDS011;31998;48.798;15.066;2022-10-15T08:15:25;27.80;;;19.33;;
46266;SDS011;31998;48.798;15.066;2022-10-15T08:17:50;22.93;;;18.00;;
46266;SDS011;31998;48.798;15.066;2022-10-15T08:20:16;29.40;;;18.00;;
46266;SDS011;31998;48.798;15.066;2022-10-15T08:22:41;19.07;;;16.57;;
46266;SDS011;31998;48.798;15.066;2022-10-15T08:25:07;24.40;;;19.50;;
46266;SDS011;31998;48.798;15.066;2022-10-15T08:27:32;21.57;;;16.63;;
46266;SDS011;31998;48.798;15.066;2022-10-15T08:29:58;19.30;;;15.97;;
46266;SDS011;31998;48.798;15.066;2022-10-15T08:32:23;21.60;;;15.33;;
46266;SDS011;31998;48.798;15.066;2022-10-15T08:34:48;23.40;;;17.07;;
46266;SDS011;31998;48.798;15.066;2022-10-15T08:37:14;23.07;;;17.07;;
46266;SDS011;31998;48.798;15.066;2022-10-15T08:39:39;20.60;;;16.60;;
46266;SDS011;31998;48.798;15.066;2022-10-15T08:42:05;20.97;;;16.57;;
46266;SDS011;31998;48.798;15.066;2022-10-15T08:47:09;20.83;;;16.27;;
46266;SDS011;31998;48.798;15.066;2022-10-15T08:49:46;20.77;;;15.70;;
46266;SDS011;31998;48.798;15.066;2022-10-15T08:52:20;19.43;;;14.63;;
46266;SDS011;31998;48.798;15.066;2022-10-15T08:54:51;21.50;;;16.13;;
46266;SDS011;31998;48.798;15.066;2022-10-15T09:02:32;23.83;;;15.60;;
46266;SDS011;31998;48.798;15.066;2022-10-15T09:05:18;18.23;;;14.77;;
46266;SDS011;31998;48.798;15.066;2022-10-15T09:10:48;19.17;;;15.03;;
46266;SDS011;31998;48.798;15.066;2022-10-15T09:15:55;16.30;;;14.57;;
46266;SDS011;31998;48.798;15.066;2022-10-15T09:18:27;19.70;;;15.63;;
46266;SDS011;31998;48.798;15.066;2022-10-15T09:20:57;16.57;;;14.73;;
46266;SDS011;31998;48.798;15.066;2022-10-15T09:23:25;18.27;;;16.03;;
46266;SDS011;31998;48.798;15.066;2022-10-15T09:26:01;17.53;;;14.50;;
46266;SDS011;31998;48.798;15.066;2022-10-15T09:28:30;18.30;;;15.33;;
46266;SDS011;31998;48.798;15.066;2022-10-15T09:31:03;16.70;;;13.40;;
46266;SDS011;31998;48.798;15.066;2022-10-15T09:38:42;11.90;;;10.80;;
46266;SDS011;31998;48.798;15.066;2022-10-15T09:44:24;12.17;;;10.93;;
46266;SDS011;31998;48.798;15.066;2022-10-15T09:46:56;11.40;;;10.30;;
46266;SDS011;31998;48.798;15.066;2022-10-15T09:49:25;11.20;;;9.27;;
46266;SDS011;31998;48.798;15.066;2022-10-15T09:52:03;9.10;;;8.40;;
46266;SDS011;31998;48.798;15.066;2022-10-15T09:57:24;8.17;;;7.40;;
46266;SDS011;31998;48.798;15.066;2022-10-15T09:59:55;8.50;;;7.70;;
46266;SDS011;31998;48.798;15.066;2022-10-15T10:02:27;7.53;;;6.87;;
46266;SDS011;31998;48.798;15.066;2022-10-15T10:04:53;8.37;;;7.60;;
46266;SDS011;31998;48.798;15.066;2022-10-15T10:07:29;8.57;;;7.70;;
46266;SDS011;31998;48.798;15.066;2022-10-15T10:10:09;8.77;;;7.97;;
46266;SDS011;31998;48.798;15.066;2022-10-15T10:12:48;7.10;;;6.50;;
46266;SDS011;31998;48.798;15.066;2022-10-15T10:15:32;6.50;;;6.00;;
46266;SDS011;31998;48.798;15.066;2022-10-15T10:17:59;8.50;;;7.07;;
46266;SDS011;31998;48.798;15.066;2022-10-15T10:20:31;8.53;;;7.43;;
46266;SDS011;31998;48.798;15.066;2022-10-15T10:22:58;7.00;;;6.50;;
46266;SDS011;31998;48.798;15.066;2022-10-15T10:27:54;7.03;;;6.50;;
46266;SDS011;31998;48.798;15.066;2022-10-15T10:30:50;6.70;;;6.30;;
46266;SDS011;31998;48.798;15.066;2022-10-15T10:33:19;6.00;;;5.60;;
46266;SDS011;31998;48.798;15.066;2022-10-15T10:35:57;8.83;;;6.17;;
46266;SDS011;31998;48.798;15.066;2022-10-15T10:38:24;5.37;;;5.07;;
46266;SDS011;31998;48.798;15.066;2022-10-15T10:40:57;5.63;;;5.20;;
46266;SDS011;31998;48.798;15.066;2022-10-15T10:43:29;5.50;;;5.20;;
46266;SDS011;31998;48.798;15.066;2022-10-15T10:45:58;6.30;;;5.80;;
46266;SDS011;31998;48.798;15.066;2022-10-15T10:51:03;5.60;;;5.20;;
46266;SDS011;31998;48.798;15.066;2022-10-15T10:53:30;5.00;;;4.80;;
46266;SDS011;31998;48.798;15.066;2022-10-15T10:55:58;4.10;;;3.93;;
46266;SDS011;31998;48.798;15.066;2022-10-15T10:58:26;4.53;;;4.33;;
46266;SDS011;31998;48.798;15.066;2022-10-15T11:00:56;4.00;;;3.90;;
46266;SDS011;31998;48.798;15.066;2022-10-15T11:03:29;3.57;;;3.47;;
46266;SDS011;31998;48.798;15.066;2022-10-15T11:06:11;3.90;;;3.50;;
46266;SDS011;31998;48.798;15.066;2022-10-15T11:09:14;3.03;;;2.83;;
46266;SDS011;31998;48.798;15.066;2022-10-15T11:12:26;3.60;;;3.47;;
46266;SDS011;31998;48.798;15.066;2022-10-15T11:24:04;3.63;;;3.40;;
46266;SDS011;31998;48.798;15.066;2022-10-15T11:37:19;2.50;;;2.40;;
46266;SDS011;31998;48.798;15.066;2022-10-15T11:42:36;2.80;;;2.60;;
46266;SDS011;31998;48.798;15.066;2022-10-15T11:48:10;3.87;;;3.37;;
46266;SDS011;31998;48.798;15.066;2022-10-15T11:56:54;3.30;;;3.10;;
46266;SDS011;31998;48.798;15.066;2022-10-15T11:59:34;3.10;;;3.00;;
46266;SDS011;31998;48.798;15.066;2022-10-15T12:04:57;2.70;;;1.97;;
46266;SDS011;31998;48.798;15.066;2022-10-15T12:07:27;2.63;;;2.33;;
46266;SDS011;31998;48.798;15.066;2022-10-15T12:12:53;1.83;;;1.77;;
46266;SDS011;31998;48.798;15.066;2022-10-15T12:16:13;1.60;;;1.50;;
46266;SDS011;31998;48.798;15.066;2022-10-15T12:21:38;1.30;;;1.30;;
46266;SDS011;31998;48.798;15.066;2022-10-15T12:24:04;5.70;;;1.00;;
46266;SDS011;31998;48.798;15.066;2022-10-15T12:26:52;0.60;;;0.60;;
46266;SDS011;31998;48.798;15.066;2022-10-15T12:29:21;5.40;;;0.73;;
46266;SDS011;31998;48.798;15.066;2022-10-15T12:31:52;0.60;;;0.60;;
46266;SDS011;31998;48.798;15.066;2022-10-15T12:34:27;0.70;;;0.70;;
46266;SDS011;31998;48.798;15.066;2022-10-15T12:37:12;0.80;;;0.70;;
46266;SDS011;31998;48.798;15.066;2022-10-15T12:39:41;0.87;;;0.87;;
46266;SDS011;31998;48.798;15.066;2022-10-15T12:42:20;0.70;;;0.70;;
46266;SDS011;31998;48.798;15.066;2022-10-15T12:44:48;0.90;;;0.90;;
46266;SDS011;31998;48.798;15.066;2022-10-15T12:47:14;0.80;;;0.80;;
46266;SDS011;31998;48.798;15.066;2022-10-15T12:50:33;1.20;;;1.20;;
46266;SDS011;31998;48.798;15.066;2022-10-15T12:53:03;2.30;;;1.30;;
46266;SDS011;31998;48.798;15.066;2022-10-15T12:55:31;0.60;;;0.60;;
46266;SDS011;31998;48.798;15.066;2022-10-15T12:58:36;3.10;;;0.97;;
46266;SDS011;31998;48.798;15.066;2022-10-15T13:01:03;0.80;;;0.80;;
46266;SDS011;31998;48.798;15.066;2022-10-15T13:03:35;0.90;;;0.90;;
46266;SDS011;31998;48.798;15.066;2022-10-15T13:08:50;22.60;;;17.70;;
46266;SDS011;31998;48.798;15.066;2022-10-15T13:11:33;1.90;;;1.00;;
46266;SDS011;31998;48.798;15.066;2022-10-15T13:14:01;1.53;;;1.00;;
46266;SDS011;31998;48.798;15.066;2022-10-15T13:16:36;4.43;;;0.67;;
46266;SDS011;31998;48.798;15.066;2022-10-15T13:19:02;0.70;;;0.70;;
46266;SDS011;31998;48.798;15.066;2022-10-15T13:24:19;2.10;;;2.00;;
46266;SDS011;31998;48.798;15.066;2022-10-15T13:26:46;5.20;;;3.73;;
46266;SDS011;31998;48.798;15.066;2022-10-15T13:29:14;2.60;;;2.40;;
46266;SDS011;31998;48.798;15.066;2022-10-15T13:31:43;2.07;;;2.07;;
46266;SDS011;31998;48.798;15.066;2022-10-15T13:34:13;1.10;;;1.10;;
46266;SDS011;31998;48.798;15.066;2022-10-15T13:37:00;0.70;;;0.70;;
46266;SDS011;31998;48.798;15.066;2022-10-15T13:44:41;1.50;;;0.60;;
46266;SDS011;31998;48.798;15.066;2022-10-15T13:47:25;1.40;;;1.33;;
46266;SDS011;31998;48.798;15.066;2022-10-15T13:49:50;2.60;;;1.03;;
46266;SDS011;31998;48.798;15.066;2022-10-15T13:52:16;2.43;;;2.23;;
46266;SDS011;31998;48.798;15.066;2022-10-15T13:54:43;1.30;;;1.30;;
46266;SDS011;31998;48.798;15.066;2022-10-15T13:57:12;1.00;;;1.00;;
46266;SDS011;31998;48.798;15.066;2022-10-15T13:59:42;0.97;;;0.97;;
46266;SDS011;31998;48.798;15.066;2022-10-15T14:02:10;1.00;;;1.00;;
46266;SDS011;31998;48.798;15.066;2022-10-15T14:04:39;2.47;;;0.60;;
46266;SDS011;31998;48.798;15.066;2022-10-15T14:07:20;1.90;;;1.20;;
46266;SDS011;31998;48.798;15.066;2022-10-15T14:09:48;1.00;;;0.97;;
46266;SDS011;31998;48.798;15.066;2022-10-15T14:12:14;0.70;;;0.70;;
46266;SDS011;31998;48.798;15.066;2022-10-15T14:14:44;0.70;;;0.70;;
46266;SDS011;31998;48.798;15.066;2022-10-15T14:19:50;1.00;;;0.83;;
46266;SDS011;31998;48.798;15.066;2022-10-15T14:22:20;1.67;;;1.57;;
46266;SDS011;31998;48.798;15.066;2022-10-15T14:24:51;0.87;;;0.87;;
46266;SDS011;31998;48.798;15.066;2022-10-15T14:27:22;0.87;;;0.40;;
46266;SDS011;31998;48.798;15.066;2022-10-15T14:29:50;0.50;;;0.50;;
46266;SDS011;31998;48.798;15.066;2022-10-15T14:32:25;2.00;;;1.90;;
46266;SDS011;31998;48.798;15.066;2022-10-15T14:34:52;1.10;;;1.10;;
46266;SDS011;31998;48.798;15.066;2022-10-15T14:43:17;0.50;;;0.50;;
46266;SDS011;31998;48.798;15.066;2022-10-15T14:45:31;3.50;;;3.30;;
46266;SDS011;31998;48.798;15.066;2022-10-15T14:48:10;3.73;;;3.43;;
46266;SDS011;31998;48.798;15.066;2022-10-15T14:50:42;11.00;;;6.43;;
46266;SDS011;31998;48.798;15.066;2022-10-15T14:53:10;10.43;;;6.93;;
46266;SDS011;31998;48.798;15.066;2022-10-15T14:55:43;0.93;;;0.83;;
46266;SDS011;31998;48.798;15.066;2022-10-15T14:58:18;0.40;;;0.40;;
46266;SDS011;31998;48.798;15.066;2022-10-15T15:00:47;3.20;;;0.90;;
46266;SDS011;31998;48.798;15.066;2022-10-15T15:03:20;1.53;;;1.43;;
46266;SDS011;31998;48.798;15.066;2022-10-15T15:05:51;1.60;;;1.60;;
46266;SDS011;31998;48.798;15.066;2022-10-15T15:08:18;1.50;;;1.30;;
46266;SDS011;31998;48.798;15.066;2022-10-15T15:10:45;2.10;;;1.90;;
46266;SDS011;31998;48.798;15.066;2022-10-15T15:13:17;4.10;;;3.70;;
46266;SDS011;31998;48.798;15.066;2022-10-15T15:15:45;23.27;;;14.53;;
46266;SDS011;31998;48.798;15.066;2022-10-15T15:18:10;30.57;;;18.50;;
46266;SDS011;31998;48.798;15.066;2022-10-15T15:20:36;13.13;;;9.90;;
46266;SDS011;31998;48.798;15.066;2022-10-15T15:23:04;19.50;;;14.60;;
46266;SDS011;31998;48.798;15.066;2022-10-15T15:25:31;18.00;;;11.20;;
46266;SDS011;31998;48.798;15.066;2022-10-15T15:27:59;9.10;;;5.10;;
46266;SDS011;31998;48.798;15.066;2022-10-15T15:30:28;6.10;;;3.93;;
46266;SDS011;31998;48.798;15.066;2022-10-15T15:32:55;2.90;;;1.90;;
46266;SDS011;31998;48.798;15.066;2022-10-15T15:37:52;3.50;;;3.30;;
46266;SDS011;31998;48.798;15.066;2022-10-15T15:40:18;3.57;;;3.30;;
46266;SDS011;31998;48.798;15.066;2022-10-15T15:42:44;4.97;;;4.63;;
46266;SDS011;31998;48.798;15.066;2022-10-15T15:45:31;3.23;;;3.13;;
46266;SDS011;31998;48.798;15.066;2022-10-15T15:47:55;8.00;;;3.10;;
46266;SDS011;31998;48.798;15.066;2022-10-15T15:50:22;2.60;;;2.43;;
46266;SDS011;31998;48.798;15.066;2022-10-15T15:52:48;6.23;;;2.93;;
46266;SDS011;31998;48.798;15.066;2022-10-15T15:55:13;4.97;;;3.70;;
46266;SDS011;31998;48.798;15.066;2022-10-15T15:57:39;3.10;;;2.90;;
46266;SDS011;31998;48.798;15.066;2022-10-15T16:00:05;2.73;;;2.63;;
46266;SDS011;31998;48.798;15.066;2022-10-15T16:02:33;2.67;;;2.57;;
46266;SDS011;31998;48.798;15.066;2022-10-15T16:04:59;2.40;;;2.30;;
46266;SDS011;31998;48.798;15.066;2022-10-15T16:07:26;2.87;;;2.67;;
46266;SDS011;31998;48.798;15.066;2022-10-15T16:09:51;2.30;;;2.20;;
46266;SDS011;31998;48.798;15.066;2022-10-15T16:12:17;3.90;;;2.03;;
46266;SDS011;31998;48.798;15.066;2022-10-15T16:14:42;2.90;;;2.70;;
46266;SDS011;31998;48.798;15.066;2022-10-15T16:17:07;3.20;;;2.90;;
46266;SDS011;31998;48.798;15.066;2022-10-15T16:19:33;7.10;;;2.40;;
46266;SDS011;31998;48.798;15.066;2022-10-15T16:21:58;4.30;;;3.27;;
46266;SDS011;31998;48.798;15.066;2022-10-15T16:24:23;2.53;;;2.40;;
46266;SDS011;31998;48.798;15.066;2022-10-15T16:26:49;11.30;;;4.17;;
46266;SDS011;31998;48.798;15.066;2022-10-15T16:29:14;11.03;;;2.80;;
46266;SDS011;31998;48.798;15.066;2022-10-15T16:31:41;2.83;;;2.60;;
46266;SDS011;31998;48.798;15.066;2022-10-15T16:34:06;4.23;;;2.67;;